Time;durP1;ratioP1;P1;durP2;ratioP2;P2;SDS_P1;SDS_P2;PMS_P1;PMS_P2;Temp;Humidity;BMP_temperature;BMP_pressure;BME280_temperature;BME280_humidity;BME280_pressure;Samples;Min_cycle;Max_cycle;Signal;HPM_P1;HPM_P2
2023/10/23 00:01:40;;;;;;;8.82;3.95;;;9.40;99.90;;;;;;5063044;28;20035;-78
2023/10/23 00:04:06;;;;;;;7.45;3.35;;;9.40;99.90;;;;;;5074143;28;20038;-78
2023/10/23 00:06:33;;;;;;;6.90;3.67;;;9.50;99.90;;;;;;5072842;28;20036;-81
2023/10/23 00:08:59;;;;;;;7.47;3.15;;;9.40;99.90;;;;;;5085883;28;20036;-78
2023/10/23 00:11:27;;;;;;;5.53;3.10;;;9.50;99.90;;;;;;5070662;28;20033;-81
2023/10/23 00:13:53;;;;;;;9.65;3.10;;;9.60;99.90;;;;;;5070646;28;20213;-82
2023/10/23 00:16:19;;;;;;;6.63;3.15;;;9.50;99.90;;;;;;5053104;28;20486;-82
2023/10/23 00:18:45;;;;;;;8.13;3.55;;;9.50;99.90;;;;;;5070078;28;20459;-81
2023/10/23 00:21:12;;;;;;;10.55;3.47;;;9.60;99.90;;;;;;5070310;28;20032;-79
2023/10/23 00:23:38;;;;;;;8.07;3.17;;;9.50;99.90;;;;;;5069460;28;20033;-78
2023/10/23 00:26:05;;;;;;;6.72;3.13;;;9.50;99.90;;;;;;5070212;28;20051;-78
2023/10/23 00:28:33;;;;;;;10.93;4.82;;;9.60;99.90;;;;;;5069552;28;20139;-79
2023/10/23 00:30:59;;;;;;;11.93;4.28;;;9.50;99.90;;;;;;5070243;28;20052;-80
2023/10/23 00:33:25;;;;;;;15.55;4.60;;;9.50;99.90;;;;;;5069884;28;20032;-79
2023/10/23 00:35:51;;;;;;;7.95;3.88;;;9.60;99.90;;;;;;5069126;28;20079;-78
2023/10/23 00:38:17;;;;;;;7.90;3.35;;;9.60;99.90;;;;;;5070079;28;20060;-78
2023/10/23 00:40:43;;;;;;;6.30;3.58;;;9.40;99.90;;;;;;5069546;28;20028;-79
2023/10/23 00:43:21;;;;;;;10.55;3.58;;;9.50;99.90;;;;;;5051944;28;20024;-79
2023/10/23 00:46:12;;;;;;;8.95;5.57;;;9.50;99.90;;;;;;5070731;28;20025;-79
2023/10/23 00:48:38;;;;;;;9.50;3.90;;;9.60;99.90;;;;;;5058196;28;20037;-80
2023/10/23 00:51:05;;;;;;;7.25;3.78;;;9.50;99.90;;;;;;5072229;28;20097;-79
2023/10/23 00:53:35;;;;;;;9.60;4.07;;;9.40;99.90;;;;;;5073967;28;20099;-79
2023/10/23 00:56:04;;;;;;;6.35;3.85;;;9.40;99.90;;;;;;5071943;28;20106;-78
2023/10/23 00:58:31;;;;;;;8.30;4.10;;;9.50;99.90;;;;;;5077721;28;20025;-79
2023/10/23 01:00:58;;;;;;;10.43;4.25;;;9.40;99.90;;;;;;5076318;28;20024;-79
2023/10/23 01:03:25;;;;;;;11.05;3.90;;;9.50;99.90;;;;;;5074220;28;20060;-79
2023/10/23 01:05:51;;;;;;;7.93;3.42;;;9.40;99.90;;;;;;5072980;28;20078;-79
2023/10/23 01:08:17;;;;;;;11.43;4.90;;;9.30;99.90;;;;;;5073412;28;20037;-79
2023/10/23 01:10:44;;;;;;;6.55;3.53;;;9.40;99.90;;;;;;5072655;28;20120;-79
2023/10/23 01:13:10;;;;;;;10.77;4.10;;;9.30;99.90;;;;;;5073071;28;20035;-78
2023/10/23 01:15:36;;;;;;;8.93;4.10;;;9.20;99.90;;;;;;5073304;28;20467;-78
2023/10/23 01:18:05;;;;;;;11.00;3.47;;;9.30;99.90;;;;;;5072870;28;20024;-78
2023/10/23 01:20:31;;;;;;;10.80;4.07;;;9.30;99.90;;;;;;5073196;28;20120;-78
2023/10/23 01:23:01;;;;;;;10.55;5.18;;;9.40;99.90;;;;;;5072162;28;20159;-78
2023/10/23 01:25:27;;;;;;;11.82;4.35;;;9.30;99.90;;;;;;5073177;28;20030;-78
2023/10/23 01:27:53;;;;;;;8.50;3.80;;;9.40;99.90;;;;;;5072024;28;20355;-78
2023/10/23 01:30:19;;;;;;;9.20;3.13;;;9.30;99.90;;;;;;5072856;28;20031;-80
2023/10/23 01:32:45;;;;;;;13.00;2.60;;;9.30;99.90;;;;;;5054256;28;20032;-80
2023/10/23 01:35:12;;;;;;;10.43;2.60;;;9.40;99.90;;;;;;5072878;28;20029;-79
2023/10/23 01:37:38;;;;;;;14.00;2.70;;;9.60;99.90;;;;;;5072643;28;20031;-78
2023/10/23 01:40:04;;;;;;;12.73;2.83;;;10.00;99.90;;;;;;5072144;28;20048;-79
2023/10/23 01:42:31;;;;;;;8.40;2.63;;;10.10;99.90;;;;;;5072684;28;20035;-78
2023/10/23 01:44:58;;;;;;;8.93;2.30;;;10.10;99.90;;;;;;5071851;28;20430;-78
2023/10/23 01:47:24;;;;;;;15.63;2.90;;;10.20;99.90;;;;;;5072315;28;20410;-78
2023/10/23 01:49:49;;;;;;;10.40;2.30;;;10.30;99.90;;;;;;5071640;28;20033;-79
2023/10/23 01:52:16;;;;;;;14.00;2.83;;;10.60;99.90;;;;;;5072503;28;20431;-78
2023/10/23 01:54:43;;;;;;;12.63;2.90;;;10.60;99.90;;;;;;5060385;28;20024;-80
2023/10/23 01:57:10;;;;;;;20.90;3.83;;;10.70;99.90;;;;;;5074960;28;20057;-78
2023/10/23 01:59:36;;;;;;;7.82;2.30;;;10.70;99.90;;;;;;5054368;28;20028;-79
2023/10/23 02:02:02;;;;;;;8.50;2.33;;;10.70;99.90;;;;;;5071647;28;20778;-80
2023/10/23 02:04:28;;;;;;;12.63;2.65;;;10.80;99.90;;;;;;5072132;28;20078;-79
2023/10/23 02:06:54;;;;;;;10.38;2.38;;;10.90;99.90;;;;;;5071878;28;20044;-79
2023/10/23 02:09:21;;;;;;;10.18;2.40;;;11.00;99.90;;;;;;5071696;28;20024;-79
2023/10/23 02:11:47;;;;;;;13.45;2.58;;;10.90;99.90;;;;;;5071303;28;20028;-79
2023/10/23 02:14:12;;;;;;;11.48;2.75;;;10.80;99.90;;;;;;5053896;28;20021;-81
2023/10/23 02:16:38;;;;;;;11.80;3.05;;;10.90;99.90;;;;;;5073074;28;20099;-83
2023/10/23 02:19:04;;;;;;;7.35;2.45;;;11.00;99.90;;;;;;5071464;28;20039;-81
2023/10/23 02:21:30;;;;;;;12.35;2.72;;;10.90;99.90;;;;;;5072074;28;20036;-80
2023/10/23 02:23:55;;;;;;;10.02;2.50;;;10.80;99.90;;;;;;5070914;28;20038;-79
2023/10/23 02:26:21;;;;;;;9.98;2.63;;;11.00;99.90;;;;;;5071570;28;20056;-79
2023/10/23 02:28:47;;;;;;;11.88;3.25;;;10.90;99.90;;;;;;5070735;28;20036;-79
2023/10/23 02:31:13;;;;;;;10.23;2.65;;;11.10;99.90;;;;;;5071362;28;20086;-79
2023/10/23 02:33:39;;;;;;;5.30;2.15;;;10.90;99.90;;;;;;5071947;28;20112;-79
2023/10/23 02:36:05;;;;;;;8.48;2.40;;;11.00;99.90;;;;;;5070729;28;20150;-80
2023/10/23 02:38:31;;;;;;;13.05;2.80;;;10.80;99.90;;;;;;5071289;28;20127;-80
2023/10/23 02:40:57;;;;;;;15.75;2.78;;;10.90;99.90;;;;;;5070763;28;20546;-79
2023/10/23 02:43:22;;;;;;;17.85;2.70;;;11.00;99.90;;;;;;5071303;28;20027;-80
2023/10/23 02:45:48;;;;;;;10.82;2.58;;;11.00;99.90;;;;;;5070869;28;20028;-79
2023/10/23 02:48:17;;;;;;;18.95;2.85;;;10.80;99.90;;;;;;5071369;28;20025;-79
2023/10/23 02:50:55;;;;;;;13.45;3.88;;;10.90;99.90;;;;;;5053617;28;20386;-80
2023/10/23 02:53:21;;;;;;;16.17;3.15;;;11.10;99.90;;;;;;5071265;28;20036;-80
2023/10/23 02:55:47;;;;;;;18.25;3.45;;;11.10;99.90;;;;;;5070257;28;20021;-79
2023/10/23 02:58:13;;;;;;;14.65;3.20;;;11.00;99.90;;;;;;5051036;28;20144;-79
2023/10/23 03:00:41;;;;;;;13.13;3.33;;;11.00;99.90;;;;;;5050683;28;20171;-79
2023/10/23 03:03:07;;;;;;;17.00;3.20;;;11.10;99.90;;;;;;5032559;28;20034;-79
2023/10/23 03:05:33;;;;;;;21.15;3.55;;;11.20;99.90;;;;;;5051130;28;20025;-79
2023/10/23 03:07:59;;;;;;;21.35;3.60;;;11.20;99.90;;;;;;5050683;28;20040;-79
2023/10/23 03:10:26;;;;;;;14.77;3.33;;;11.20;99.90;;;;;;5032920;28;20033;-79
2023/10/23 03:12:52;;;;;;;37.03;4.47;;;11.00;99.90;;;;;;5050321;28;20032;-79
2023/10/23 03:15:18;;;;;;;16.52;3.80;;;11.30;99.90;;;;;;5032764;28;20341;-79
2023/10/23 03:17:43;;;;;;;18.00;3.92;;;11.30;99.90;;;;;;5050758;28;20428;-80
2023/10/23 03:20:10;;;;;;;20.70;3.70;;;11.30;99.90;;;;;;5050661;28;20028;-80
2023/10/23 03:22:36;;;;;;;20.83;3.83;;;11.20;99.90;;;;;;5049675;28;20108;-80
2023/10/23 03:25:03;;;;;;;17.30;3.95;;;11.20;99.90;;;;;;5031886;28;20516;-80
2023/10/23 03:27:29;;;;;;;13.77;3.13;;;11.20;99.90;;;;;;5050830;28;20035;-79
2023/10/23 03:29:54;;;;;;;14.85;3.13;;;11.40;99.90;;;;;;5055225;28;20340;-79
2023/10/23 03:32:21;;;;;;;21.23;3.10;;;11.30;99.90;;;;;;5069008;28;20039;-79
2023/10/23 03:34:47;;;;;;;18.60;3.65;;;11.30;99.90;;;;;;5064483;28;20033;-80
2023/10/23 03:37:12;;;;;;;14.88;2.88;;;11.20;99.90;;;;;;5050775;28;20048;-79
2023/10/23 03:39:38;;;;;;;21.85;3.63;;;11.30;99.90;;;;;;5050956;28;20482;-79
2023/10/23 03:42:04;;;;;;;15.88;3.47;;;11.40;99.90;;;;;;5050129;28;20021;-79
2023/10/23 03:44:30;;;;;;;19.48;3.67;;;11.30;99.90;;;;;;5032213;28;20025;-79
2023/10/23 03:46:55;;;;;;;20.67;3.60;;;11.30;99.90;;;;;;5049661;28;20025;-79
2023/10/23 03:49:21;;;;;;;14.48;3.42;;;11.30;99.90;;;;;;5032180;28;20337;-79
2023/10/23 03:51:47;;;;;;;19.70;3.60;;;11.30;99.90;;;;;;5050142;28;20033;-79
2023/10/23 03:54:13;;;;;;;15.80;3.67;;;11.30;99.90;;;;;;5031858;28;20029;-79
2023/10/23 03:56:38;;;;;;;24.33;3.85;;;11.20;99.90;;;;;;5056775;28;20076;-79
2023/10/23 03:59:04;;;;;;;26.02;3.65;;;11.40;99.90;;;;;;5069288;28;20036;-79
2023/10/23 04:01:30;;;;;;;19.80;4.18;;;11.30;99.90;;;;;;5069589;28;20100;-79
2023/10/23 04:03:56;;;;;;;21.95;4.30;;;11.20;99.90;;;;;;5069658;28;20403;-78
2023/10/23 04:06:22;;;;;;;22.48;3.45;;;11.40;99.90;;;;;;5069884;28;20063;-79
2023/10/23 04:08:52;;;;;;;16.27;3.70;;;11.30;99.90;;;;;;5069937;28;20085;-81
2023/10/23 04:11:18;;;;;;;13.02;3.40;;;11.40;99.90;;;;;;5070496;28;20051;-80
2023/10/23 04:13:43;;;;;;;21.52;3.58;;;11.20;99.90;;;;;;5070275;28;20063;-80
2023/10/23 04:16:09;;;;;;;18.05;4.45;;;11.40;99.90;;;;;;5069462;28;20112;-80
2023/10/23 04:18:35;;;;;;;21.15;4.30;;;11.40;99.90;;;;;;5069886;28;20434;-80
2023/10/23 04:21:08;;;;;;;25.33;4.00;;;11.40;99.90;;;;;;5069701;28;20040;-80
2023/10/23 04:23:38;;;;;;;23.52;3.80;;;11.20;99.90;;;;;;5070414;28;20032;-80
2023/10/23 04:26:07;;;;;;;18.73;3.50;;;11.30;99.90;;;;;;5052055;28;20046;-80
2023/10/23 04:28:35;;;;;;;12.27;3.63;;;11.40;99.90;;;;;;5070392;28;20042;-80
2023/10/23 04:31:00;;;;;;;15.75;3.30;;;11.40;99.90;;;;;;5069291;28;20028;-80
2023/10/23 04:33:27;;;;;;;18.63;3.25;;;11.40;99.90;;;;;;5072292;28;20400;-81
2023/10/23 04:35:54;;;;;;;14.98;3.58;;;11.30;99.90;;;;;;5073596;28;20094;-80
2023/10/23 04:38:21;;;;;;;17.42;3.80;;;11.30;99.90;;;;;;5074101;28;20037;-81
2023/10/23 04:40:49;;;;;;;14.85;4.35;;;11.40;99.90;;;;;;5074134;28;20032;-80
2023/10/23 04:43:15;;;;;;;20.38;3.95;;;11.50;99.90;;;;;;5073298;28;20086;-81
2023/10/23 04:45:41;;;;;;;23.00;3.45;;;11.70;99.90;;;;;;5073542;28;20467;-80
2023/10/23 04:48:07;;;;;;;18.40;3.30;;;11.60;99.90;;;;;;5072928;28;20032;-80
2023/10/23 04:50:39;;;;;;;14.80;3.38;;;11.60;99.90;;;;;;5073671;28;20028;-79
2023/10/23 04:53:08;;;;;;;16.13;3.42;;;11.60;99.90;;;;;;5073269;28;20072;-81
2023/10/23 04:55:34;;;;;;;12.20;2.95;;;11.60;99.90;;;;;;5073538;28;20032;-80
2023/10/23 04:58:01;;;;;;;10.70;3.15;;;11.60;99.90;;;;;;5073183;28;20040;-79
2023/10/23 05:00:28;;;;;;;12.57;3.22;;;11.70;99.90;;;;;;5073670;28;20035;-77
2023/10/23 05:02:54;;;;;;;9.27;2.58;;;11.80;99.90;;;;;;5072820;28;20024;-78
2023/10/23 05:05:20;;;;;;;13.48;2.80;;;11.60;99.90;;;;;;5073549;28;20368;-79
2023/10/23 05:07:46;;;;;;;12.68;2.95;;;11.70;99.90;;;;;;5073203;28;20020;-79
2023/10/23 05:10:12;;;;;;;13.82;3.47;;;11.70;99.90;;;;;;5073089;28;20755;-80
2023/10/23 05:12:38;;;;;;;12.38;2.63;;;11.60;99.90;;;;;;5073622;28;20024;-79
2023/10/23 05:15:04;;;;;;;8.77;3.13;;;11.60;99.90;;;;;;5074060;28;20055;-80
2023/10/23 05:17:30;;;;;;;11.00;2.75;;;11.50;99.90;;;;;;5073703;28;20100;-80
2023/10/23 05:19:56;;;;;;;17.02;3.30;;;11.70;99.90;;;;;;5073002;28;20486;-81
2023/10/23 05:22:22;;;;;;;7.03;2.60;;;11.50;99.90;;;;;;5073624;28;20416;-80
2023/10/23 05:24:48;;;;;;;6.70;2.45;;;11.60;99.90;;;;;;5078499;28;20202;-78
2023/10/23 05:27:14;;;;;;;13.50;3.25;;;11.50;99.90;;;;;;5079581;28;20098;-78
2023/10/23 05:29:40;;;;;;;16.45;4.13;;;11.60;99.90;;;;;;5056908;28;20035;-78
2023/10/23 05:32:07;;;;;;;17.10;3.22;;;11.50;99.90;;;;;;5072134;28;20135;-78
2023/10/23 05:34:33;;;;;;;12.82;3.80;;;11.40;99.90;;;;;;5054803;28;20467;-80
2023/10/23 05:36:59;;;;;;;10.88;2.65;;;11.60;99.90;;;;;;5072398;28;20056;-80
2023/10/23 05:39:26;;;;;;;9.48;2.78;;;11.60;99.90;;;;;;5072777;28;20084;-80
2023/10/23 05:41:51;;;;;;;13.98;3.30;;;11.30;99.90;;;;;;5072838;28;20031;-80
2023/10/23 05:44:17;;;;;;;14.48;3.50;;;11.40;99.90;;;;;;5071115;28;20383;-79
2023/10/23 05:46:43;;;;;;;19.50;3.80;;;11.50;99.90;;;;;;5054318;28;20031;-79
2023/10/23 05:49:08;;;;;;;22.08;3.97;;;11.50;99.90;;;;;;5071940;28;20040;-79
2023/10/23 05:51:34;;;;;;;18.52;3.55;;;11.40;99.90;;;;;;5072677;28;20032;-79
2023/10/23 05:54:00;;;;;;;20.20;4.03;;;11.40;99.90;;;;;;5053888;28;20479;-79
2023/10/23 05:56:26;;;;;;;21.15;4.18;;;11.40;99.90;;;;;;5072589;28;20084;-79
2023/10/23 05:58:51;;;;;;;19.25;3.80;;;11.50;99.90;;;;;;5072437;28;20025;-80
2023/10/23 06:01:17;;;;;;;20.55;4.18;;;11.60;99.90;;;;;;5072085;28;20150;-79
2023/10/23 06:03:43;;;;;;;16.58;3.70;;;11.40;99.90;;;;;;5072604;28;20028;-80
2023/10/23 06:06:09;;;;;;;19.48;4.15;;;11.50;99.90;;;;;;5071880;28;20410;-79
2023/10/23 06:08:35;;;;;;;16.67;3.55;;;11.60;99.90;;;;;;5072570;28;20517;-79
2023/10/23 06:11:01;;;;;;;19.75;3.83;;;11.60;99.90;;;;;;5078564;28;20124;-79
2023/10/23 06:13:27;;;;;;;17.50;3.45;;;11.50;99.90;;;;;;5072541;28;20036;-80
2023/10/23 06:15:53;;;;;;;17.60;3.35;;;11.40;99.90;;;;;;5072388;28;20094;-80
2023/10/23 06:18:19;;;;;;;17.55;3.60;;;11.40;99.90;;;;;;5071470;28;20063;-80
2023/10/23 06:20:45;;;;;;;18.83;3.55;;;11.40;99.90;;;;;;5072283;28;20036;-80
2023/10/23 06:23:11;;;;;;;17.05;3.58;;;11.40;99.90;;;;;;5071730;28;20458;-80
2023/10/23 06:25:37;;;;;;;16.92;3.42;;;11.60;99.90;;;;;;5072184;28;20407;-80
2023/10/23 06:28:03;;;;;;;17.48;4.28;;;11.50;99.90;;;;;;5071096;28;20043;-80
2023/10/23 06:30:29;;;;;;;18.50;3.53;;;11.50;99.90;;;;;;5053625;28;20040;-80
2023/10/23 06:32:55;;;;;;;15.60;3.95;;;11.70;99.90;;;;;;5071439;28;20115;-78
2023/10/23 06:35:21;;;;;;;23.35;3.75;;;11.60;99.90;;;;;;5071658;28;20104;-79
2023/10/23 06:37:48;;;;;;;18.55;3.85;;;11.50;99.90;;;;;;5053464;28;20040;-79
2023/10/23 06:40:14;;;;;;;19.70;4.03;;;11.70;99.90;;;;;;5071200;28;20032;-79
2023/10/23 06:42:39;;;;;;;14.88;3.45;;;11.70;99.90;;;;;;5072439;28;20028;-79
2023/10/23 06:45:06;;;;;;;18.95;4.07;;;11.60;99.90;;;;;;5071376;28;20033;-79
2023/10/23 06:47:32;;;;;;;20.10;4.57;;;11.70;99.90;;;;;;5071804;28;20024;-79
2023/10/23 06:49:59;;;;;;;17.27;4.07;;;11.80;99.90;;;;;;5071144;28;20028;-79
2023/10/23 06:52:25;;;;;;;21.58;3.95;;;11.80;99.90;;;;;;5071331;28;20036;-80
2023/10/23 06:54:51;;;;;;;18.52;3.38;;;11.70;99.90;;;;;;5071342;28;20028;-79
2023/10/23 06:57:16;;;;;;;21.58;3.40;;;11.90;99.90;;;;;;5039899;28;20492;-79
2023/10/23 06:59:42;;;;;;;19.83;3.50;;;12.00;99.90;;;;;;5051925;28;20029;-80
2023/10/23 07:02:09;;;;;;;19.60;3.25;;;12.00;99.90;;;;;;5051288;28;20029;-79
2023/10/23 07:04:34;;;;;;;15.18;3.33;;;12.00;99.90;;;;;;5033413;28;20043;-80
2023/10/23 07:07:00;;;;;;;17.40;3.28;;;11.90;99.90;;;;;;5051034;28;20021;-80
2023/10/23 07:09:26;;;;;;;23.92;3.83;;;11.90;99.90;;;;;;5033479;28;20041;-79
2023/10/23 07:11:52;;;;;;;19.00;3.00;;;12.00;99.90;;;;;;5033320;28;20068;-79
2023/10/23 07:14:18;;;;;;;16.52;3.80;;;12.00;99.90;;;;;;5050781;28;20143;-79
2023/10/23 07:16:45;;;;;;;19.00;3.42;;;11.90;99.90;;;;;;5051646;28;20029;-79
2023/10/23 07:19:12;;;;;;;16.02;3.55;;;12.00;99.90;;;;;;5050824;28;20111;-79
2023/10/23 07:21:38;;;;;;;20.58;2.80;;;11.90;99.90;;;;;;5033333;28;20107;-80
2023/10/23 07:24:04;;;;;;;15.23;2.85;;;12.00;99.90;;;;;;5050516;28;20582;-81
2023/10/23 07:26:30;;;;;;;19.25;3.58;;;12.00;99.90;;;;;;5050878;28;20100;-78
2023/10/23 07:28:55;;;;;;;16.90;2.90;;;11.90;99.90;;;;;;5050647;28;20120;-80
2023/10/23 07:31:21;;;;;;;16.23;3.10;;;11.80;99.90;;;;;;5050369;28;20055;-79
2023/10/23 07:33:47;;;;;;;18.95;3.03;;;11.90;99.90;;;;;;5050441;28;20045;-79
2023/10/23 07:36:14;;;;;;;11.70;2.83;;;11.80;99.90;;;;;;5032444;28;20035;-79
2023/10/23 07:38:42;;;;;;;18.88;3.45;;;12.00;99.90;;;;;;5050428;28;20048;-80
2023/10/23 07:41:11;;;;;;;17.80;3.33;;;12.00;99.90;;;;;;5051135;28;20021;-80
2023/10/23 07:43:38;;;;;;;18.60;2.97;;;12.10;99.90;;;;;;5064102;28;20048;-81
2023/10/23 07:46:05;;;;;;;14.70;3.30;;;12.10;99.90;;;;;;5065917;28;20021;-81
2023/10/23 07:48:32;;;;;;;16.75;2.47;;;12.10;99.90;;;;;;5035593;28;20132;-81
2023/10/23 07:51:00;;;;;;;15.98;3.00;;;12.20;99.90;;;;;;5051961;28;20040;-81
2023/10/23 07:53:27;;;;;;;13.95;2.83;;;12.20;99.90;;;;;;5050950;28;20033;-81
2023/10/23 07:55:53;;;;;;;16.60;2.50;;;12.20;99.90;;;;;;5051078;28;20032;-80
2023/10/23 07:58:19;;;;;;;23.52;2.95;;;12.10;99.90;;;;;;5070139;28;20158;-81
2023/10/23 08:00:44;;;;;;;15.82;2.75;;;12.20;99.90;;;;;;5070589;28;20514;-80
2023/10/23 08:03:11;;;;;;;15.65;2.55;;;12.30;99.90;;;;;;5069745;28;20032;-81
2023/10/23 08:05:37;;;;;;;14.75;2.88;;;12.30;99.90;;;;;;5070323;28;20037;-80
2023/10/23 08:08:04;;;;;;;16.25;3.10;;;12.30;99.90;;;;;;5074157;28;20478;-80
2023/10/23 08:10:30;;;;;;;18.58;3.05;;;12.40;99.90;;;;;;5076525;28;20024;-80
2023/10/23 08:12:56;;;;;;;13.32;2.40;;;12.40;99.90;;;;;;5076825;28;20033;-80
2023/10/23 08:15:21;;;;;;;14.32;3.10;;;12.50;99.90;;;;;;5076923;28;20037;-80
2023/10/23 08:17:47;;;;;;;18.13;2.88;;;12.50;99.90;;;;;;5076680;28;20386;-80
2023/10/23 08:20:13;;;;;;;9.95;2.40;;;12.60;99.90;;;;;;5076003;28;20032;-79
2023/10/23 08:22:39;;;;;;;19.52;2.88;;;12.60;99.90;;;;;;5076881;28;20037;-80
2023/10/23 08:25:05;;;;;;;15.50;2.63;;;12.70;99.90;;;;;;5058148;28;20063;-80
2023/10/23 08:27:31;;;;;;;17.38;3.35;;;12.70;99.90;;;;;;5058646;28;20028;-80
2023/10/23 08:29:56;;;;;;;14.23;2.88;;;12.70;99.90;;;;;;5058352;28;20150;-80
2023/10/23 08:32:22;;;;;;;12.20;2.50;;;12.80;99.90;;;;;;5057797;28;20090;-81
2023/10/23 08:34:52;;;;;;;19.42;2.70;;;12.80;99.90;;;;;;5076431;28;20378;-80
2023/10/23 08:37:17;;;;;;;12.00;2.58;;;12.80;99.90;;;;;;5076035;28;20127;-79
2023/10/23 08:39:44;;;;;;;16.40;2.88;;;12.90;99.90;;;;;;5076596;28;20036;-81
2023/10/23 08:42:10;;;;;;;14.65;3.22;;;12.80;99.90;;;;;;5076135;28;20077;-79
2023/10/23 08:44:36;;;;;;;20.50;2.85;;;12.90;99.90;;;;;;5076349;28;20052;-80
2023/10/23 08:47:02;;;;;;;11.23;2.40;;;12.80;99.90;;;;;;5076687;28;20063;-80
2023/10/23 08:49:29;;;;;;;18.73;2.38;;;12.90;99.90;;;;;;5076107;28;20070;-79
2023/10/23 08:51:58;;;;;;;14.82;2.15;;;12.80;99.90;;;;;;5076529;28;20079;-81
2023/10/23 08:54:24;;;;;;;10.40;2.63;;;12.80;99.90;;;;;;5075675;28;20036;-80
2023/10/23 08:56:57;;;;;;;12.25;2.70;;;12.80;99.90;;;;;;5076446;28;20048;-79
2023/10/23 08:59:22;;;;;;;10.75;2.78;;;12.80;99.90;;;;;;5057460;28;20036;-80
2023/10/23 09:01:48;;;;;;;12.93;2.47;;;12.80;99.90;;;;;;5076790;28;20024;-80
2023/10/23 09:04:14;;;;;;;16.17;2.70;;;12.80;99.90;;;;;;5075903;28;20020;-80
2023/10/23 09:06:42;;;;;;;16.83;2.55;;;12.80;99.90;;;;;;5076279;28;20035;-79
2023/10/23 09:09:08;;;;;;;11.73;2.40;;;12.70;99.90;;;;;;5076261;28;20067;-80
2023/10/23 09:11:52;;;;;;;15.38;2.72;;;12.80;99.90;;;;;;5076597;28;20032;-80
2023/10/23 09:14:26;;;;;;;12.27;2.47;;;12.90;99.90;;;;;;5057661;28;20424;-80
2023/10/23 09:16:54;;;;;;;13.82;2.95;;;12.80;99.90;;;;;;5057812;28;20128;-79
2023/10/23 09:19:32;;;;;;;16.23;2.50;;;12.90;99.90;;;;;;5073635;28;20028;-79
2023/10/23 09:21:58;;;;;;;20.55;2.72;;;12.80;99.90;;;;;;5073153;28;20450;-80
2023/10/23 09:24:24;;;;;;;11.55;2.30;;;12.90;99.90;;;;;;5072378;28;20467;-78
2023/10/23 09:26:51;;;;;;;13.07;2.20;;;12.90;99.90;;;;;;5073145;28;20099;-79
2023/10/23 09:29:30;;;;;;;11.25;2.55;;;12.90;99.90;;;;;;5072546;28;20060;-79
2023/10/23 09:31:58;;;;;;;15.02;2.33;;;12.90;99.90;;;;;;5055268;28;20498;-78
2023/10/23 09:34:24;;;;;;;13.82;2.03;;;13.00;99.90;;;;;;5060560;28;20116;-79
2023/10/23 09:36:51;;;;;;;12.57;2.30;;;13.00;99.90;;;;;;5052337;28;20033;-79
2023/10/23 09:39:18;;;;;;;12.98;2.50;;;13.00;99.90;;;;;;5018893;28;20029;-79
2023/10/23 09:41:47;;;;;;;12.25;2.28;;;13.00;99.90;;;;;;5072603;28;20024;-79
2023/10/23 09:44:14;;;;;;;12.07;2.10;;;13.00;99.90;;;;;;5071917;28;20173;-80
2023/10/23 09:46:43;;;;;;;11.90;2.42;;;13.00;99.90;;;;;;5072727;28;20140;-79
2023/10/23 09:49:10;;;;;;;15.05;2.58;;;13.10;99.90;;;;;;5069127;28;20094;-81
2023/10/23 09:51:39;;;;;;;13.40;2.17;;;13.10;99.90;;;;;;5052855;28;20061;-80
2023/10/23 09:54:16;;;;;;;8.77;1.80;;;13.10;99.90;;;;;;5053159;28;20060;-79
2023/10/23 09:56:53;;;;;;;9.00;2.00;;;13.20;99.90;;;;;;5052296;28;20056;-79
2023/10/23 09:59:27;;;;;;;6.70;1.77;;;13.20;99.90;;;;;;5053010;28;20111;-78
2023/10/23 10:01:59;;;;;;;12.68;1.70;;;13.20;99.90;;;;;;5053098;28;20083;-79
2023/10/23 10:04:26;;;;;;;;;;;13.30;99.90;;;;;;5053136;28;20082;-80
2023/10/23 10:07:00;;;;;;;15.57;2.38;;;13.30;99.90;;;;;;5053183;28;19905;-80
2023/10/23 10:09:27;;;;;;;9.23;1.77;;;13.30;99.90;;;;;;5034441;28;20045;-78
2023/10/23 10:11:56;;;;;;;8.43;1.83;;;13.40;99.90;;;;;;5053030;28;20105;-79
2023/10/23 10:14:25;;;;;;;9.05;2.47;;;13.30;99.90;;;;;;5052679;28;20121;-79
2023/10/23 10:16:55;;;;;;;10.68;2.30;;;13.40;99.90;;;;;;5053514;28;20028;-79
2023/10/23 10:19:21;;;;;;;8.63;2.20;;;13.40;99.90;;;;;;5053238;28;20093;-79
2023/10/23 10:22:00;;;;;;;11.00;2.17;;;13.40;99.90;;;;;;5053763;28;20052;-80
2023/10/23 10:24:26;;;;;;;9.15;1.85;;;13.40;99.90;;;;;;5053464;28;20033;-79
2023/10/23 10:26:52;;;;;;;8.20;2.10;;;13.40;99.90;;;;;;5035887;28;20021;-79
2023/10/23 10:29:19;;;;;;;12.10;2.67;;;13.50;99.90;;;;;;5053155;28;20115;-78
2023/10/23 10:32:09;;;;;;;13.27;2.30;;;13.50;99.90;;;;;;5052874;28;20033;-79
2023/10/23 10:34:37;;;;;;;12.73;1.98;;;13.50;99.90;;;;;;5055604;28;20476;-79
2023/10/23 10:37:05;;;;;;;12.30;2.00;;;13.50;99.90;;;;;;5075258;28;20044;-79
2023/10/23 10:39:46;;;;;;;10.60;2.15;;;13.50;99.90;;;;;;5076017;28;20040;-80
2023/10/23 10:42:34;;;;;;;14.30;2.45;;;13.50;99.90;;;;;;5043847;28;20025;-81
2023/10/23 10:45:09;;;;;;;10.27;1.63;;;13.50;99.90;;;;;;5052490;28;20068;-79
2023/10/23 10:47:36;;;;;;;11.20;1.90;;;13.50;99.90;;;;;;5052242;28;20028;-78
2023/10/23 10:50:04;;;;;;;11.10;2.42;;;13.40;99.90;;;;;;5052653;28;20028;-79
2023/10/23 10:52:33;;;;;;;11.23;2.75;;;13.50;99.90;;;;;;5034476;28;20352;-79
2023/10/23 10:55:05;;;;;;;15.18;2.40;;;13.50;99.90;;;;;;5052162;28;20029;-79
2023/10/23 10:57:31;;;;;;;11.35;2.22;;;13.50;99.90;;;;;;5052069;28;20037;-79
2023/10/23 10:59:58;;;;;;;12.23;2.40;;;13.50;99.90;;;;;;5052164;28;20521;-78
2023/10/23 11:02:25;;;;;;;11.50;2.30;;;13.60;99.90;;;;;;5051550;28;20032;-79
2023/10/23 11:04:51;;;;;;;10.77;2.53;;;13.60;99.90;;;;;;5034296;28;20062;-79
2023/10/23 11:07:35;;;;;;;14.50;2.13;;;13.50;99.90;;;;;;5051980;28;20036;-81
2023/10/23 11:10:01;;;;;;;9.65;2.00;;;13.60;99.90;;;;;;5052311;28;20041;-78
2023/10/23 11:12:26;;;;;;;13.07;2.85;;;13.70;99.90;;;;;;5051539;28;20028;-79
2023/10/23 11:14:52;;;;;;;6.85;1.88;;;13.70;99.90;;;;;;5052168;28;20025;-78
2023/10/23 11:17:18;;;;;;;9.85;2.08;;;13.70;99.90;;;;;;5051091;28;20065;-78
2023/10/23 11:19:44;;;;;;;12.10;2.38;;;13.70;99.90;;;;;;5051527;28;20110;-78
2023/10/23 11:22:14;;;;;;;10.35;2.03;;;13.80;99.90;;;;;;5051680;28;20196;-79
2023/10/23 11:24:41;;;;;;;10.55;2.38;;;13.70;99.90;;;;;;5051725;28;20036;-78
2023/10/23 11:27:07;;;;;;;11.10;3.13;;;13.70;99.90;;;;;;5052119;28;20021;-79
2023/10/23 11:29:48;;;;;;;7.93;2.53;;;13.70;99.90;;;;;;5051783;28;20068;-80
2023/10/23 11:32:15;;;;;;;15.88;2.65;;;13.70;99.90;;;;;;5052399;28;20426;-78
2023/10/23 11:34:42;;;;;;;7.90;2.38;;;13.70;99.90;;;;;;5051647;28;20029;-79
2023/10/23 11:37:09;;;;;;;9.05;2.40;;;13.70;99.90;;;;;;5051443;28;20030;-79
2023/10/23 11:39:37;;;;;;;14.60;2.40;;;13.70;99.90;;;;;;5050836;28;20459;-79
2023/10/23 11:42:04;;;;;;;13.93;2.67;;;13.80;99.90;;;;;;5050668;28;20112;-79
2023/10/23 11:44:32;;;;;;;15.32;2.78;;;13.80;99.90;;;;;;5050833;28;20483;-79
2023/10/23 11:46:58;;;;;;;13.00;2.30;;;13.80;99.90;;;;;;5051359;28;20067;-79
2023/10/23 11:49:24;;;;;;;13.85;2.30;;;13.80;99.90;;;;;;5050781;28;20476;-80
2023/10/23 11:51:55;;;;;;;10.38;2.33;;;13.80;99.90;;;;;;5051246;28;20467;-78
2023/10/23 11:54:24;;;;;;;13.20;2.28;;;13.80;99.90;;;;;;5033066;28;20422;-79
2023/10/23 11:56:50;;;;;;;12.50;2.50;;;13.90;99.90;;;;;;5051084;28;20097;-79
2023/10/23 11:59:17;;;;;;;12.77;2.13;;;13.90;99.90;;;;;;5051501;28;20033;-80
2023/10/23 12:01:43;;;;;;;16.20;2.40;;;14.00;99.90;;;;;;5016781;28;20069;-79
2023/10/23 12:04:10;;;;;;;16.60;2.47;;;13.90;99.90;;;;;;5050539;28;20032;-80
2023/10/23 12:06:37;;;;;;;12.23;2.40;;;13.90;99.90;;;;;;5051094;28;20025;-80
2023/10/23 12:09:04;;;;;;;13.77;2.70;;;14.00;99.90;;;;;;5051256;28;20041;-80
2023/10/23 12:11:30;;;;;;;8.90;2.55;;;14.00;99.90;;;;;;5050571;28;20484;-80
2023/10/23 12:13:57;;;;;;;13.68;2.50;;;14.00;99.90;;;;;;5051134;28;20032;-79
2023/10/23 12:16:22;;;;;;;9.25;2.30;;;14.00;99.90;;;;;;5050676;28;20021;-80
2023/10/23 12:18:48;;;;;;;15.15;2.65;;;14.00;99.90;;;;;;5050844;28;20509;-78
2023/10/23 12:21:14;;;;;;;13.50;2.55;;;14.10;99.90;;;;;;5050951;28;20047;-80
2023/10/23 12:23:41;;;;;;;8.63;2.15;;;14.10;99.90;;;;;;5050676;28;20025;-79
2023/10/23 12:26:06;;;;;;;14.07;2.38;;;14.10;99.90;;;;;;5050863;28;20033;-79
2023/10/23 12:28:32;;;;;;;12.90;2.30;;;14.10;99.90;;;;;;5050843;28;20028;-79
2023/10/23 12:31:04;;;;;;;12.63;2.35;;;14.10;99.90;;;;;;5051311;28;20029;-79
2023/10/23 12:33:30;;;;;;;16.67;2.60;;;14.10;99.90;;;;;;5050346;28;20426;-79
2023/10/23 12:35:57;;;;;;;14.07;2.13;;;14.20;99.90;;;;;;5050990;28;20029;-79
2023/10/23 12:38:22;;;;;;;8.88;1.95;;;14.20;99.90;;;;;;5050590;28;20025;-80
2023/10/23 12:40:49;;;;;;;8.73;2.33;;;14.20;99.90;;;;;;5050931;28;20159;-78